sensor_id;sensor_type;location;lat;lon;timestamp;temperature;humidity
8002;DHT22;4046;48.774;8.732;2022-12-18T00:01:53;21.30;78.10
8002;DHT22;4046;48.774;8.732;2022-12-18T00:04:23;21.30;78.00
8002;DHT22;4046;48.774;8.732;2022-12-18T00:06:50;21.30;77.30
8002;DHT22;4046;48.774;8.732;2022-12-18T00:09:16;21.30;77.30
8002;DHT22;4046;48.774;8.732;2022-12-18T00:11:43;21.30;77.20
8002;DHT22;4046;48.774;8.732;2022-12-18T00:14:11;21.20;77.10
8002;DHT22;4046;48.774;8.732;2022-12-18T00:16:38;21.30;77.30
8002;DHT22;4046;48.774;8.732;2022-12-18T00:19:05;21.20;77.10
8002;DHT22;4046;48.774;8.732;2022-12-18T00:21:33;21.20;77.10
8002;DHT22;4046;48.774;8.732;2022-12-18T00:24:00;21.20;77.00
8002;DHT22;4046;48.774;8.732;2022-12-18T00:26:28;21.20;77.10
8002;DHT22;4046;48.774;8.732;2022-12-18T00:28:59;21.20;77.00
8002;DHT22;4046;48.774;8.732;2022-12-18T00:31:25;21.20;77.00
8002;DHT22;4046;48.774;8.732;2022-12-18T00:33:54;21.20;77.00
8002;DHT22;4046;48.774;8.732;2022-12-18T00:36:24;21.20;77.00
8002;DHT22;4046;48.774;8.732;2022-12-18T00:38:51;21.20;76.80
8002;DHT22;4046;48.774;8.732;2022-12-18T00:41:18;21.20;76.90
8002;DHT22;4046;48.774;8.732;2022-12-18T00:44:05;21.20;76.90
8002;DHT22;4046;48.774;8.732;2022-12-18T00:46:32;21.20;77.00
8002;DHT22;4046;48.774;8.732;2022-12-18T00:48:58;21.20;76.90
8002;DHT22;4046;48.774;8.732;2022-12-18T00:51:24;21.20;76.80
8002;DHT22;4046;48.774;8.732;2022-12-18T00:53:52;21.20;76.80
8002;DHT22;4046;48.774;8.732;2022-12-18T00:56:21;21.20;76.80
8002;DHT22;4046;48.774;8.732;2022-12-18T00:58:48;21.20;76.80
8002;DHT22;4046;48.774;8.732;2022-12-18T01:01:14;21.20;76.80
8002;DHT22;4046;48.774;8.732;2022-12-18T01:03:40;21.20;76.70
8002;DHT22;4046;48.774;8.732;2022-12-18T01:06:08;21.20;76.70
8002;DHT22;4046;48.774;8.732;2022-12-18T01:08:35;21.20;76.60
8002;DHT22;4046;48.774;8.732;2022-12-18T01:11:07;21.20;76.60
8002;DHT22;4046;48.774;8.732;2022-12-18T01:13:34;21.20;76.60
8002;DHT22;4046;48.774;8.732;2022-12-18T01:16:01;21.20;76.50
8002;DHT22;4046;48.774;8.732;2022-12-18T01:18:27;21.20;76.60
8002;DHT22;4046;48.774;8.732;2022-12-18T01:20:53;21.20;76.60
8002;DHT22;4046;48.774;8.732;2022-12-18T01:23:19;21.20;76.60
8002;DHT22;4046;48.774;8.732;2022-12-18T01:25:45;21.20;76.50
8002;DHT22;4046;48.774;8.732;2022-12-18T01:28:12;21.20;76.50
8002;DHT22;4046;48.774;8.732;2022-12-18T01:30:38;21.20;76.50
8002;DHT22;4046;48.774;8.732;2022-12-18T01:33:05;21.20;76.50
8002;DHT22;4046;48.774;8.732;2022-12-18T01:35:31;21.20;76.40
8002;DHT22;4046;48.774;8.732;2022-12-18T01:37:57;21.20;76.40
8002;DHT22;4046;48.774;8.732;2022-12-18T01:40:24;21.20;76.40
8002;DHT22;4046;48.774;8.732;2022-12-18T01:42:53;21.10;76.20
8002;DHT22;4046;48.774;8.732;2022-12-18T01:45:29;21.10;76.20
8002;DHT22;4046;48.774;8.732;2022-12-18T01:48:05;21.10;76.10
8002;DHT22;4046;48.774;8.732;2022-12-18T01:50:40;21.10;76.10
8002;DHT22;4046;48.774;8.732;2022-12-18T01:53:15;21.10;76.20
8002;DHT22;4046;48.774;8.732;2022-12-18T01:55:46;21.10;76.10
8002;DHT22;4046;48.774;8.732;2022-12-18T01:58:14;21.10;76.10
8002;DHT22;4046;48.774;8.732;2022-12-18T02:00:41;21.10;76.00
8002;DHT22;4046;48.774;8.732;2022-12-18T02:03:07;21.10;76.00
8002;DHT22;4046;48.774;8.732;2022-12-18T02:05:56;21.10;75.90
8002;DHT22;4046;48.774;8.732;2022-12-18T02:08:36;21.10;75.90
8002;DHT22;4046;48.774;8.732;2022-12-18T02:13:56;21.10;75.90
8002;DHT22;4046;48.774;8.732;2022-12-18T02:16:38;21.00;75.60
8002;DHT22;4046;48.774;8.732;2022-12-18T02:19:21;21.00;75.70
8002;DHT22;4046;48.774;8.732;2022-12-18T02:22:12;21.00;75.70
8002;DHT22;4046;48.774;8.732;2022-12-18T02:27:24;21.00;75.60
8002;DHT22;4046;48.774;8.732;2022-12-18T02:29:53;21.00;75.60
8002;DHT22;4046;48.774;8.732;2022-12-18T02:32:26;21.00;75.60
8002;DHT22;4046;48.774;8.732;2022-12-18T02:34:55;21.00;76.20
8002;DHT22;4046;48.774;8.732;2022-12-18T02:37:23;21.00;75.50
8002;DHT22;4046;48.774;8.732;2022-12-18T02:39:53;21.00;75.60
8002;DHT22;4046;48.774;8.732;2022-12-18T02:42:20;21.00;75.40
8002;DHT22;4046;48.774;8.732;2022-12-18T02:44:49;21.00;75.50
8002;DHT22;4046;48.774;8.732;2022-12-18T02:47:18;21.00;75.40
8002;DHT22;4046;48.774;8.732;2022-12-18T02:50:08;21.00;75.40
8002;DHT22;4046;48.774;8.732;2022-12-18T02:58:02;21.00;75.20
8002;DHT22;4046;48.774;8.732;2022-12-18T03:00:54;21.00;75.30
8002;DHT22;4046;48.774;8.732;2022-12-18T03:03:49;21.00;75.20
8002;DHT22;4046;48.774;8.732;2022-12-18T03:06:24;21.00;75.10
8002;DHT22;4046;48.774;8.732;2022-12-18T03:08:57;21.00;75.10
8002;DHT22;4046;48.774;8.732;2022-12-18T03:11:26;21.00;75.10
8002;DHT22;4046;48.774;8.732;2022-12-18T03:14:21;21.00;75.00
8002;DHT22;4046;48.774;8.732;2022-12-18T03:16:50;21.00;75.00
8002;DHT22;4046;48.774;8.732;2022-12-18T03:19:21;21.00;75.00
8002;DHT22;4046;48.774;8.732;2022-12-18T03:21:54;20.90;74.80
8002;DHT22;4046;48.774;8.732;2022-12-18T03:24:23;20.90;74.90
8002;DHT22;4046;48.774;8.732;2022-12-18T03:26:57;20.90;74.70
8002;DHT22;4046;48.774;8.732;2022-12-18T03:29:34;20.90;74.70
8002;DHT22;4046;48.774;8.732;2022-12-18T03:32:08;20.90;74.70
8002;DHT22;4046;48.774;8.732;2022-12-18T03:34:37;20.90;74.60
8002;DHT22;4046;48.774;8.732;2022-12-18T03:37:05;20.90;74.60
8002;DHT22;4046;48.774;8.732;2022-12-18T03:39:32;20.90;74.40
8002;DHT22;4046;48.774;8.732;2022-12-18T03:42:08;20.90;74.40
8002;DHT22;4046;48.774;8.732;2022-12-18T03:44:43;20.90;74.30
8002;DHT22;4046;48.774;8.732;2022-12-18T03:47:19;20.90;74.30
8002;DHT22;4046;48.774;8.732;2022-12-18T03:50:10;20.90;74.20
8002;DHT22;4046;48.774;8.732;2022-12-18T03:52:54;20.90;74.10
8002;DHT22;4046;48.774;8.732;2022-12-18T03:55:24;20.80;74.00
8002;DHT22;4046;48.774;8.732;2022-12-18T03:57:52;20.80;74.00
8002;DHT22;4046;48.774;8.732;2022-12-18T04:00:19;20.80;74.00
8002;DHT22;4046;48.774;8.732;2022-12-18T04:02:50;20.80;73.90
8002;DHT22;4046;48.774;8.732;2022-12-18T04:05:19;20.80;73.90
8002;DHT22;4046;48.774;8.732;2022-12-18T04:07:47;20.80;73.80
8002;DHT22;4046;48.774;8.732;2022-12-18T04:10:16;20.80;73.80
8002;DHT22;4046;48.774;8.732;2022-12-18T04:12:42;20.80;73.80
8002;DHT22;4046;48.774;8.732;2022-12-18T04:15:09;20.80;73.80
8002;DHT22;4046;48.774;8.732;2022-12-18T04:17:36;20.80;73.70
8002;DHT22;4046;48.774;8.732;2022-12-18T04:20:03;20.80;73.80
8002;DHT22;4046;48.774;8.732;2022-12-18T04:22:29;20.80;73.70
8002;DHT22;4046;48.774;8.732;2022-12-18T04:24:55;20.80;73.70
8002;DHT22;4046;48.774;8.732;2022-12-18T04:27:21;20.90;74.00
8002;DHT22;4046;48.774;8.732;2022-12-18T04:29:48;20.90;73.90
8002;DHT22;4046;48.774;8.732;2022-12-18T04:32:14;20.90;73.80
8002;DHT22;4046;48.774;8.732;2022-12-18T04:34:40;20.90;73.80
8002;DHT22;4046;48.774;8.732;2022-12-18T04:37:06;20.80;73.70
8002;DHT22;4046;48.774;8.732;2022-12-18T04:39:33;20.80;73.70
8002;DHT22;4046;48.774;8.732;2022-12-18T04:41:59;20.80;73.70
8002;DHT22;4046;48.774;8.732;2022-12-18T04:44:25;20.80;73.60
8002;DHT22;4046;48.774;8.732;2022-12-18T04:46:51;20.80;73.50
8002;DHT22;4046;48.774;8.732;2022-12-18T04:49:17;20.80;73.60
8002;DHT22;4046;48.774;8.732;2022-12-18T04:51:43;20.80;73.50
8002;DHT22;4046;48.774;8.732;2022-12-18T04:54:10;20.80;73.50
8002;DHT22;4046;48.774;8.732;2022-12-18T04:56:36;20.70;73.40
8002;DHT22;4046;48.774;8.732;2022-12-18T04:59:02;20.80;73.50
8002;DHT22;4046;48.774;8.732;2022-12-18T05:01:28;20.80;73.50
8002;DHT22;4046;48.774;8.732;2022-12-18T05:03:54;20.80;73.50
8002;DHT22;4046;48.774;8.732;2022-12-18T05:06:21;20.80;73.40
8002;DHT22;4046;48.774;8.732;2022-12-18T05:08:47;20.80;73.40
8002;DHT22;4046;48.774;8.732;2022-12-18T05:11:14;20.80;73.30
8002;DHT22;4046;48.774;8.732;2022-12-18T05:13:44;20.80;73.30
8002;DHT22;4046;48.774;8.732;2022-12-18T05:16:11;20.80;73.40
8002;DHT22;4046;48.774;8.732;2022-12-18T05:18:37;20.80;73.40
8002;DHT22;4046;48.774;8.732;2022-12-18T05:21:03;20.80;73.30
8002;DHT22;4046;48.774;8.732;2022-12-18T05:23:30;20.70;73.20
8002;DHT22;4046;48.774;8.732;2022-12-18T05:26:02;20.70;73.10
8002;DHT22;4046;48.774;8.732;2022-12-18T05:28:30;20.70;73.10
8002;DHT22;4046;48.774;8.732;2022-12-18T05:30:58;20.70;73.00
8002;DHT22;4046;48.774;8.732;2022-12-18T05:33:26;20.70;73.00
8002;DHT22;4046;48.774;8.732;2022-12-18T05:35:55;20.70;73.10
8002;DHT22;4046;48.774;8.732;2022-12-18T05:38:22;20.70;73.00
8002;DHT22;4046;48.774;8.732;2022-12-18T05:40:50;20.70;73.00
8002;DHT22;4046;48.774;8.732;2022-12-18T05:43:17;20.70;72.90
8002;DHT22;4046;48.774;8.732;2022-12-18T05:45:44;20.70;72.90
8002;DHT22;4046;48.774;8.732;2022-12-18T05:48:10;20.70;72.90
8002;DHT22;4046;48.774;8.732;2022-12-18T05:50:38;20.70;72.90
8002;DHT22;4046;48.774;8.732;2022-12-18T05:53:05;20.70;72.90
8002;DHT22;4046;48.774;8.732;2022-12-18T05:55:35;20.60;72.80
8002;DHT22;4046;48.774;8.732;2022-12-18T05:58:03;20.70;72.80
8002;DHT22;4046;48.774;8.732;2022-12-18T06:00:30;20.70;72.80
8002;DHT22;4046;48.774;8.732;2022-12-18T06:02:58;20.70;72.80
8002;DHT22;4046;48.774;8.732;2022-12-18T06:05:25;20.70;72.80
8002;DHT22;4046;48.774;8.732;2022-12-18T06:07:51;20.60;72.80
8002;DHT22;4046;48.774;8.732;2022-12-18T06:10:18;20.70;73.10
8002;DHT22;4046;48.774;8.732;2022-12-18T06:12:44;20.70;72.90
8002;DHT22;4046;48.774;8.732;2022-12-18T06:15:10;20.60;72.90
8002;DHT22;4046;48.774;8.732;2022-12-18T06:17:37;20.60;72.90
8002;DHT22;4046;48.774;8.732;2022-12-18T06:20:04;20.70;73.00
8002;DHT22;4046;48.774;8.732;2022-12-18T06:22:31;20.60;73.10
8002;DHT22;4046;48.774;8.732;2022-12-18T06:24:58;20.60;73.00
8002;DHT22;4046;48.774;8.732;2022-12-18T06:27:25;20.70;73.10
8002;DHT22;4046;48.774;8.732;2022-12-18T06:29:51;20.70;73.20
8002;DHT22;4046;48.774;8.732;2022-12-18T06:32:17;20.70;73.10
8002;DHT22;4046;48.774;8.732;2022-12-18T06:34:43;20.70;73.10
8002;DHT22;4046;48.774;8.732;2022-12-18T06:37:10;20.70;73.20
8002;DHT22;4046;48.774;8.732;2022-12-18T06:39:36;20.70;73.20
8002;DHT22;4046;48.774;8.732;2022-12-18T06:42:03;20.60;73.10
8002;DHT22;4046;48.774;8.732;2022-12-18T06:44:29;20.70;73.20
8002;DHT22;4046;48.774;8.732;2022-12-18T06:46:55;20.70;73.20
8002;DHT22;4046;48.774;8.732;2022-12-18T06:49:21;20.70;73.20
8002;DHT22;4046;48.774;8.732;2022-12-18T06:51:47;20.70;73.10
8002;DHT22;4046;48.774;8.732;2022-12-18T06:54:14;20.70;73.10
8002;DHT22;4046;48.774;8.732;2022-12-18T06:56:40;20.70;73.20
8002;DHT22;4046;48.774;8.732;2022-12-18T06:59:06;20.70;73.30
8002;DHT22;4046;48.774;8.732;2022-12-18T07:01:32;20.70;73.40
8002;DHT22;4046;48.774;8.732;2022-12-18T07:03:59;20.70;73.30
8002;DHT22;4046;48.774;8.732;2022-12-18T07:06:25;20.70;73.40
8002;DHT22;4046;48.774;8.732;2022-12-18T07:08:53;20.70;73.30
8002;DHT22;4046;48.774;8.732;2022-12-18T07:11:20;20.70;73.20
8002;DHT22;4046;48.774;8.732;2022-12-18T07:13:47;20.70;73.30
8002;DHT22;4046;48.774;8.732;2022-12-18T07:16:19;20.60;73.20
8002;DHT22;4046;48.774;8.732;2022-12-18T07:18:46;20.70;73.20
8002;DHT22;4046;48.774;8.732;2022-12-18T07:21:17;20.70;73.30
8002;DHT22;4046;48.774;8.732;2022-12-18T07:23:43;20.70;73.30
8002;DHT22;4046;48.774;8.732;2022-12-18T07:26:13;20.70;73.30
8002;DHT22;4046;48.774;8.732;2022-12-18T07:28:41;20.70;73.30
8002;DHT22;4046;48.774;8.732;2022-12-18T07:31:19;20.70;73.20
8002;DHT22;4046;48.774;8.732;2022-12-18T07:33:46;20.70;73.20
8002;DHT22;4046;48.774;8.732;2022-12-18T07:36:12;20.70;73.10
8002;DHT22;4046;48.774;8.732;2022-12-18T07:38:39;20.70;73.10
8002;DHT22;4046;48.774;8.732;2022-12-18T07:41:08;20.70;73.20
8002;DHT22;4046;48.774;8.732;2022-12-18T07:43:35;20.60;73.10
8002;DHT22;4046;48.774;8.732;2022-12-18T07:46:02;20.60;73.20
8002;DHT22;4046;48.774;8.732;2022-12-18T07:48:29;20.60;73.30
8002;DHT22;4046;48.774;8.732;2022-12-18T07:50:59;20.50;73.10
8002;DHT22;4046;48.774;8.732;2022-12-18T07:53:26;20.50;73.20
8002;DHT22;4046;48.774;8.732;2022-12-18T07:56:00;20.40;73.20
8002;DHT22;4046;48.774;8.732;2022-12-18T07:58:26;20.40;73.20
8002;DHT22;4046;48.774;8.732;2022-12-18T08:00:53;20.40;73.20
8002;DHT22;4046;48.774;8.732;2022-12-18T08:03:19;20.30;73.10
8002;DHT22;4046;48.774;8.732;2022-12-18T08:05:45;20.30;73.10
8002;DHT22;4046;48.774;8.732;2022-12-18T08:08:12;20.30;73.10
8002;DHT22;4046;48.774;8.732;2022-12-18T08:10:38;20.30;73.10
8002;DHT22;4046;48.774;8.732;2022-12-18T08:13:05;20.30;73.10
8002;DHT22;4046;48.774;8.732;2022-12-18T08:15:31;20.20;73.00
8002;DHT22;4046;48.774;8.732;2022-12-18T08:17:57;20.20;73.10
8002;DHT22;4046;48.774;8.732;2022-12-18T08:20:24;20.20;73.10
8002;DHT22;4046;48.774;8.732;2022-12-18T08:22:50;20.20;73.00
8002;DHT22;4046;48.774;8.732;2022-12-18T08:25:16;20.20;73.00
8002;DHT22;4046;48.774;8.732;2022-12-18T08:27:42;20.20;72.90
8002;DHT22;4046;48.774;8.732;2022-12-18T08:30:09;20.20;73.00
8002;DHT22;4046;48.774;8.732;2022-12-18T08:32:36;20.10;73.00
8002;DHT22;4046;48.774;8.732;2022-12-18T08:35:02;20.10;73.80
8002;DHT22;4046;48.774;8.732;2022-12-18T08:37:28;20.10;72.90
8002;DHT22;4046;48.774;8.732;2022-12-18T08:39:55;20.10;72.90
8002;DHT22;4046;48.774;8.732;2022-12-18T08:42:21;20.10;72.70
8002;DHT22;4046;48.774;8.732;2022-12-18T08:45:06;20.10;72.90
8002;DHT22;4046;48.774;8.732;2022-12-18T08:47:32;20.10;72.80
8002;DHT22;4046;48.774;8.732;2022-12-18T08:49:58;20.20;72.90
8002;DHT22;4046;48.774;8.732;2022-12-18T08:52:25;20.20;72.80
8002;DHT22;4046;48.774;8.732;2022-12-18T08:54:51;20.30;72.70
8002;DHT22;4046;48.774;8.732;2022-12-18T08:57:17;20.40;72.70
8002;DHT22;4046;48.774;8.732;2022-12-18T08:59:43;20.40;72.60
8002;DHT22;4046;48.774;8.732;2022-12-18T09:02:11;20.40;72.50
8002;DHT22;4046;48.774;8.732;2022-12-18T09:04:37;20.60;72.60
8002;DHT22;4046;48.774;8.732;2022-12-18T09:07:03;20.60;72.40
8002;DHT22;4046;48.774;8.732;2022-12-18T09:09:29;20.70;72.30
8002;DHT22;4046;48.774;8.732;2022-12-18T09:11:55;20.70;72.20
8002;DHT22;4046;48.774;8.732;2022-12-18T09:14:22;20.80;72.10
8002;DHT22;4046;48.774;8.732;2022-12-18T09:16:48;20.90;72.10
8002;DHT22;4046;48.774;8.732;2022-12-18T09:19:14;21.00;71.90
8002;DHT22;4046;48.774;8.732;2022-12-18T09:21:40;21.10;72.60
8002;DHT22;4046;48.774;8.732;2022-12-18T09:24:08;21.30;71.60
8002;DHT22;4046;48.774;8.732;2022-12-18T09:26:37;21.60;71.30
8002;DHT22;4046;48.774;8.732;2022-12-18T09:29:03;22.10;71.10
8002;DHT22;4046;48.774;8.732;2022-12-18T09:31:30;22.50;70.80
8002;DHT22;4046;48.774;8.732;2022-12-18T09:33:56;22.80;70.50
8002;DHT22;4046;48.774;8.732;2022-12-18T09:36:22;23.00;70.20
8002;DHT22;4046;48.774;8.732;2022-12-18T09:38:49;23.30;70.00
8002;DHT22;4046;48.774;8.732;2022-12-18T09:41:34;23.40;69.60
8002;DHT22;4046;48.774;8.732;2022-12-18T09:44:14;23.60;69.40
8002;DHT22;4046;48.774;8.732;2022-12-18T09:46:47;23.90;69.20
8002;DHT22;4046;48.774;8.732;2022-12-18T09:49:17;24.00;68.90
8002;DHT22;4046;48.774;8.732;2022-12-18T09:51:52;24.20;68.70
8002;DHT22;4046;48.774;8.732;2022-12-18T09:54:38;24.30;68.40
8002;DHT22;4046;48.774;8.732;2022-12-18T09:57:05;24.60;68.40
8002;DHT22;4046;48.774;8.732;2022-12-18T09:59:36;24.70;68.00
8002;DHT22;4046;48.774;8.732;2022-12-18T10:02:15;24.70;67.70
8002;DHT22;4046;48.774;8.732;2022-12-18T10:04:42;24.80;67.60
8002;DHT22;4046;48.774;8.732;2022-12-18T10:07:27;24.50;67.30
8002;DHT22;4046;48.774;8.732;2022-12-18T10:10:07;24.20;67.40
8002;DHT22;4046;48.774;8.732;2022-12-18T10:15:31;23.80;67.60
8002;DHT22;4046;48.774;8.732;2022-12-18T10:18:27;23.60;67.50
8002;DHT22;4046;48.774;8.732;2022-12-18T10:20:59;23.40;67.90
8002;DHT22;4046;48.774;8.732;2022-12-18T10:24:04;22.90;68.00
8002;DHT22;4046;48.774;8.732;2022-12-18T10:26:20;22.60;68.30
8002;DHT22;4046;48.774;8.732;2022-12-18T10:28:47;22.40;68.60
8002;DHT22;4046;48.774;8.732;2022-12-18T10:31:19;22.30;68.70
8002;DHT22;4046;48.774;8.732;2022-12-18T10:33:46;22.10;68.80
8002;DHT22;4046;48.774;8.732;2022-12-18T10:36:13;21.80;69.00
8002;DHT22;4046;48.774;8.732;2022-12-18T10:38:39;21.60;69.30
8002;DHT22;4046;48.774;8.732;2022-12-18T10:43:45;21.20;69.70
8002;DHT22;4046;48.774;8.732;2022-12-18T10:48:56;20.90;70.00
8002;DHT22;4046;48.774;8.732;2022-12-18T10:51:27;20.80;70.20
8002;DHT22;4046;48.774;8.732;2022-12-18T10:53:59;20.70;70.50
8002;DHT22;4046;48.774;8.732;2022-12-18T10:56:28;20.60;70.50
8002;DHT22;4046;48.774;8.732;2022-12-18T10:58:57;20.60;70.60
8002;DHT22;4046;48.774;8.732;2022-12-18T11:01:24;20.50;70.70
8002;DHT22;4046;48.774;8.732;2022-12-18T11:06:21;20.40;70.90
8002;DHT22;4046;48.774;8.732;2022-12-18T11:09:01;20.40;71.00
8002;DHT22;4046;48.774;8.732;2022-12-18T11:11:29;20.30;71.10
8002;DHT22;4046;48.774;8.732;2022-12-18T11:13:58;20.30;71.10
8002;DHT22;4046;48.774;8.732;2022-12-18T11:16:27;20.20;71.10
8002;DHT22;4046;48.774;8.732;2022-12-18T11:18:54;20.20;71.30
8002;DHT22;4046;48.774;8.732;2022-12-18T11:21:21;20.10;71.20
8002;DHT22;4046;48.774;8.732;2022-12-18T11:23:50;20.10;71.30
8002;DHT22;4046;48.774;8.732;2022-12-18T11:26:17;20.10;71.40
8002;DHT22;4046;48.774;8.732;2022-12-18T11:28:47;20.00;71.30
8002;DHT22;4046;48.774;8.732;2022-12-18T11:36:23;20.00;71.50
8002;DHT22;4046;48.774;8.732;2022-12-18T11:38:53;20.00;71.60
8002;DHT22;4046;48.774;8.732;2022-12-18T11:41:34;20.00;71.60
8002;DHT22;4046;48.774;8.732;2022-12-18T11:44:29;20.00;71.60
8002;DHT22;4046;48.774;8.732;2022-12-18T11:47:07;20.00;71.60
8002;DHT22;4046;48.774;8.732;2022-12-18T11:49:36;20.00;71.60
8002;DHT22;4046;48.774;8.732;2022-12-18T11:52:23;20.00;71.60
8002;DHT22;4046;48.774;8.732;2022-12-18T11:54:58;19.90;71.10
8002;DHT22;4046;48.774;8.732;2022-12-18T11:57:34;19.90;71.10
8002;DHT22;4046;48.774;8.732;2022-12-18T12:00:18;19.90;70.90
8002;DHT22;4046;48.774;8.732;2022-12-18T12:14:23;20.00;71.30
8002;DHT22;4046;48.774;8.732;2022-12-18T12:16:57;20.00;71.10
8002;DHT22;4046;48.774;8.732;2022-12-18T12:20:00;20.00;71.00
8002;DHT22;4046;48.774;8.732;2022-12-18T12:28:16;20.10;70.80
8002;DHT22;4046;48.774;8.732;2022-12-18T12:30:58;20.10;70.70
8002;DHT22;4046;48.774;8.732;2022-12-18T12:39:12;20.10;70.80
8002;DHT22;4046;48.774;8.732;2022-12-18T12:41:40;20.10;70.90
8002;DHT22;4046;48.774;8.732;2022-12-18T12:44:32;20.10;70.80
8002;DHT22;4046;48.774;8.732;2022-12-18T12:47:04;20.00;70.80
8002;DHT22;4046;48.774;8.732;2022-12-18T12:49:33;20.10;70.80
8002;DHT22;4046;48.774;8.732;2022-12-18T12:52:05;20.10;70.80
8002;DHT22;4046;48.774;8.732;2022-12-18T12:54:34;20.10;70.80
8002;DHT22;4046;48.774;8.732;2022-12-18T12:57:21;20.10;70.80
8002;DHT22;4046;48.774;8.732;2022-12-18T13:00:00;20.10;70.90
8002;DHT22;4046;48.774;8.732;2022-12-18T13:02:56;20.00;70.70
8002;DHT22;4046;48.774;8.732;2022-12-18T13:08:12;20.00;70.90
8002;DHT22;4046;48.774;8.732;2022-12-18T13:10:47;20.00;70.90
8002;DHT22;4046;48.774;8.732;2022-12-18T13:13:14;20.00;70.90
8002;DHT22;4046;48.774;8.732;2022-12-18T13:15:45;19.90;70.80
8002;DHT22;4046;48.774;8.732;2022-12-18T13:18:17;20.00;71.00
8002;DHT22;4046;48.774;8.732;2022-12-18T13:20:47;20.00;71.00
8002;DHT22;4046;48.774;8.732;2022-12-18T13:25:53;19.90;70.90
8002;DHT22;4046;48.774;8.732;2022-12-18T13:31:07;19.90;71.10
8002;DHT22;4046;48.774;8.732;2022-12-18T13:33:40;19.90;71.20
8002;DHT22;4046;48.774;8.732;2022-12-18T13:39:10;19.90;71.40
8002;DHT22;4046;48.774;8.732;2022-12-18T13:41:36;19.90;71.40
8002;DHT22;4046;48.774;8.732;2022-12-18T13:44:31;19.90;71.30
8002;DHT22;4046;48.774;8.732;2022-12-18T13:47:00;19.90;71.40
8002;DHT22;4046;48.774;8.732;2022-12-18T13:49:39;19.80;71.30
8002;DHT22;4046;48.774;8.732;2022-12-18T13:52:24;19.80;71.30
8002;DHT22;4046;48.774;8.732;2022-12-18T13:54:53;19.90;71.40
8002;DHT22;4046;48.774;8.732;2022-12-18T13:57:35;19.90;71.40
8002;DHT22;4046;48.774;8.732;2022-12-18T14:00:28;19.80;71.30
8002;DHT22;4046;48.774;8.732;2022-12-18T14:02:56;19.80;71.30
8002;DHT22;4046;48.774;8.732;2022-12-18T14:05:35;19.80;71.40
8002;DHT22;4046;48.774;8.732;2022-12-18T14:08:06;19.80;71.50
8002;DHT22;4046;48.774;8.732;2022-12-18T14:10:35;19.80;71.50
8002;DHT22;4046;48.774;8.732;2022-12-18T14:13:08;19.80;71.50
8002;DHT22;4046;48.774;8.732;2022-12-18T14:15:39;19.80;71.50
8002;DHT22;4046;48.774;8.732;2022-12-18T14:18:29;19.80;71.60
8002;DHT22;4046;48.774;8.732;2022-12-18T14:20:59;19.80;71.70
8002;DHT22;4046;48.774;8.732;2022-12-18T14:25:56;19.80;71.80
8002;DHT22;4046;48.774;8.732;2022-12-18T14:28:23;19.80;71.80
8002;DHT22;4046;48.774;8.732;2022-12-18T14:30:49;19.80;71.80
8002;DHT22;4046;48.774;8.732;2022-12-18T14:33:22;19.80;71.80
8002;DHT22;4046;48.774;8.732;2022-12-18T14:35:58;19.70;71.60
8002;DHT22;4046;48.774;8.732;2022-12-18T14:41:04;19.70;71.70
8002;DHT22;4046;48.774;8.732;2022-12-18T14:43:33;19.70;71.70
8002;DHT22;4046;48.774;8.732;2022-12-18T14:46:01;19.70;71.70
8002;DHT22;4046;48.774;8.732;2022-12-18T14:48:38;19.70;71.70
8002;DHT22;4046;48.774;8.732;2022-12-18T14:53:39;19.70;71.80
8002;DHT22;4046;48.774;8.732;2022-12-18T14:56:33;19.70;71.80
8002;DHT22;4046;48.774;8.732;2022-12-18T14:59:06;19.70;71.40
8002;DHT22;4046;48.774;8.732;2022-12-18T15:01:44;19.70;71.60
8002;DHT22;4046;48.774;8.732;2022-12-18T15:04:27;19.70;71.60
8002;DHT22;4046;48.774;8.732;2022-12-18T15:07:14;19.70;71.60
8002;DHT22;4046;48.774;8.732;2022-12-18T15:09:42;19.70;71.70
8002;DHT22;4046;48.774;8.732;2022-12-18T15:12:28;19.60;71.70
8002;DHT22;4046;48.774;8.732;2022-12-18T15:14:58;19.60;71.80
8002;DHT22;4046;48.774;8.732;2022-12-18T15:17:25;19.60;71.80
8002;DHT22;4046;48.774;8.732;2022-12-18T15:19:58;19.60;71.80
8002;DHT22;4046;48.774;8.732;2022-12-18T15:22:27;19.60;71.80
8002;DHT22;4046;48.774;8.732;2022-12-18T15:24:55;19.60;71.80
8002;DHT22;4046;48.774;8.732;2022-12-18T15:27:31;19.60;71.90
8002;DHT22;4046;48.774;8.732;2022-12-18T15:32:34;19.70;72.30
8002;DHT22;4046;48.774;8.732;2022-12-18T15:35:16;19.70;72.30
8002;DHT22;4046;48.774;8.732;2022-12-18T15:37:44;19.70;72.30
8002;DHT22;4046;48.774;8.732;2022-12-18T15:40:21;19.70;72.30
8002;DHT22;4046;48.774;8.732;2022-12-18T15:42:48;19.80;72.40
8002;DHT22;4046;48.774;8.732;2022-12-18T15:45:33;19.80;72.40
8002;DHT22;4046;48.774;8.732;2022-12-18T15:48:00;19.80;72.50
8002;DHT22;4046;48.774;8.732;2022-12-18T15:50:29;19.90;72.60
8002;DHT22;4046;48.774;8.732;2022-12-18T15:52:55;20.00;72.70
8002;DHT22;4046;48.774;8.732;2022-12-18T15:55:23;20.00;72.60
8002;DHT22;4046;48.774;8.732;2022-12-18T15:58:10;20.10;72.70
8002;DHT22;4046;48.774;8.732;2022-12-18T16:00:38;20.10;72.70
8002;DHT22;4046;48.774;8.732;2022-12-18T16:03:04;20.20;72.80
8002;DHT22;4046;48.774;8.732;2022-12-18T16:05:31;20.10;72.70
8002;DHT22;4046;48.774;8.732;2022-12-18T16:07:58;20.20;72.80
8002;DHT22;4046;48.774;8.732;2022-12-18T16:10:25;20.30;72.90
8002;DHT22;4046;48.774;8.732;2022-12-18T16:12:52;20.40;73.00
8002;DHT22;4046;48.774;8.732;2022-12-18T16:15:18;20.40;73.10
8002;DHT22;4046;48.774;8.732;2022-12-18T16:17:46;20.50;73.10
8002;DHT22;4046;48.774;8.732;2022-12-18T16:20:20;20.50;73.00
8002;DHT22;4046;48.774;8.732;2022-12-18T16:22:48;20.50;73.10
8002;DHT22;4046;48.774;8.732;2022-12-18T16:25:25;20.50;73.20
8002;DHT22;4046;48.774;8.732;2022-12-18T16:27:53;20.50;73.10
8002;DHT22;4046;48.774;8.732;2022-12-18T16:30:23;20.60;73.10
8002;DHT22;4046;48.774;8.732;2022-12-18T16:32:49;20.60;73.00
8002;DHT22;4046;48.774;8.732;2022-12-18T16:35:16;20.70;73.40
8002;DHT22;4046;48.774;8.732;2022-12-18T16:37:43;20.70;73.30
8002;DHT22;4046;48.774;8.732;2022-12-18T16:40:13;20.70;73.10
8002;DHT22;4046;48.774;8.732;2022-12-18T16:42:41;20.70;73.00
8002;DHT22;4046;48.774;8.732;2022-12-18T16:45:10;20.70;72.90
8002;DHT22;4046;48.774;8.732;2022-12-18T16:47:37;20.70;73.00
8002;DHT22;4046;48.774;8.732;2022-12-18T16:50:04;20.70;73.00
8002;DHT22;4046;48.774;8.732;2022-12-18T16:52:31;20.70;73.10
8002;DHT22;4046;48.774;8.732;2022-12-18T16:54:57;20.80;73.20
8002;DHT22;4046;48.774;8.732;2022-12-18T16:57:23;20.80;73.40
8002;DHT22;4046;48.774;8.732;2022-12-18T16:59:50;20.80;73.30
8002;DHT22;4046;48.774;8.732;2022-12-18T17:02:18;20.90;73.30
8002;DHT22;4046;48.774;8.732;2022-12-18T17:04:45;20.90;73.20
8002;DHT22;4046;48.774;8.732;2022-12-18T17:07:12;20.90;73.20
8002;DHT22;4046;48.774;8.732;2022-12-18T17:09:39;20.90;73.10
8002;DHT22;4046;48.774;8.732;2022-12-18T17:12:05;20.90;73.00
8002;DHT22;4046;48.774;8.732;2022-12-18T17:14:32;20.90;73.00
8002;DHT22;4046;48.774;8.732;2022-12-18T17:16:59;20.90;72.90
8002;DHT22;4046;48.774;8.732;2022-12-18T17:19:26;20.90;72.80
8002;DHT22;4046;48.774;8.732;2022-12-18T17:21:53;20.90;72.70
8002;DHT22;4046;48.774;8.732;2022-12-18T17:24:19;21.00;72.80
8002;DHT22;4046;48.774;8.732;2022-12-18T17:26:46;21.00;72.70
8002;DHT22;4046;48.774;8.732;2022-12-18T17:29:16;21.00;72.70
8002;DHT22;4046;48.774;8.732;2022-12-18T17:31:42;21.00;72.70
8002;DHT22;4046;48.774;8.732;2022-12-18T17:34:12;21.00;72.70